Archival Weather

Greater Kankakee

Kankakee, Illinois (KIKK)

Report from: Tuesday, June 6, 2023 2:15 AM CDT
Current time: Saturday, July 13, 2024 8:49 PM CDT

Current weather – Weather history – Daily summaries
Weather forecast

Temperature15.5°C (59.9°F)
Dew point7.0°C (44.6°F)
Winds 3 kts (1.5 m/s, 3.5 mph) West-Southwest (250°)
Visibility10 mi. (16.1 km)
Clouds Scattered clouds 10,000 ft. (3,048 m)
Altimeter30.02 in.Hg (1017 mB)
Relative humidity57 %
Density altitude91 ft. (28 m)
Remarks Fully automated report
Automated weather observing station with precipitation discriminator
Present weather sensor not operating
Flight conditions Visual Meteorological Conditions
Raw dataKIKK 060715Z AUTO 25003KT 10SM SCT100 16/07 A3002 RMK AO2 T01550070 PWINO
An error has occurred. This application may no longer respond until reloaded. Reload 🗙